• Join FlightAware (Why Join?)
  • Login
  • US Flag 
07:51AM EDT


 

Airport Tracker/Info


-or-


 

Live Flight TrackerFlight Track Log ✈ EJA102 ✈ 28-Jun-2013 ✈ KPVD - CYYZ

Flight Track Log - Related Links

Times and Time Zones

All times are in EDT time to prevent confusion due to time zone crossing. See the EJA102 flight status page for this flight to view local times or setup timezone preferences in your user account.

Time Position Orientation Groundspeed Altitude Reporting Facility
EDT Latitude Longitude Course Direction KTS MPH feet Rate Location/Type
01:33PM 41.7225 -71.6475 283° West 253 291 7,900  Level Boston Center
01:34PM 41.7978 -71.7106 328° Northwest 276 318 10,000 1,020 Climbing Boston Center
01:35PM 41.8733 -71.7767 327° Northwest 324 373 10,000 1,140 Level Boston Center
01:36PM 41.9614 -71.8622 324° Northwest 361 415 12,300 2,820 Climbing Boston Center
01:37PM 41.9908 -71.9681 291° West 324 373 15,700 3,000 Climbing Boston Center
01:38PM 42.0183 -72.0572 293° West 292 336 18,300 2,040 Climbing Boston Center
01:39PM 42.0519 -72.1633 293° West 292 336 19,800 1,200 Climbing Boston Center
01:40PM 42.0856 -72.2694 293° West 303 349 21,000 1,080 Climbing Boston Center
01:41PM 42.1275 -72.4036 293° West 316 364 22,200 1,260 Climbing Boston Center
01:42PM 42.1650 -72.5242 293° West 327 376 23,600 1,260 Climbing Boston Center
01:43PM 42.2000 -72.6475 291° West 346 398 24,800 1,200 Climbing Boston Center
01:44PM 42.2372 -72.7708 292° West 352 405 26,100 1,260 Climbing Boston Center
01:45PM 42.2764 -72.8975 293° West 359 413 27,400 1,140 Climbing Boston Center
01:46PM 42.3136 -73.0156 293° West 365 420 28,400 1,200 Climbing Boston Center
01:47PM 42.3669 -73.1453 299° West 365 420 29,900 1,380 Climbing Boston Center
01:48PM 42.4100 -73.2697 295° West 365 420 31,200 1,200 Climbing Boston Center
01:49PM 42.4339 -73.3994 284° West 383 441 32,300 1,200 Climbing Boston Center
01:50PM 42.4514 -73.5347 280° West 378 435 33,600 840 Climbing Boston Center
01:51PM 42.4667 -73.6700 279° West 371 427 34,000 180 Climbing Boston Center
01:52PM 42.4839 -73.8111 279° West 378 435 34,000  Level Boston Center
01:53PM 42.5006 -73.9664 278° West 398 458 34,000  Level Boston Center
01:54PM 42.5172 -74.1217 278° West 418 481 34,000  Level Boston Center
01:55PM 42.5336 -74.2744 278° West 423 487 34,000  Level Boston Center
01:56PM 42.5553 -74.4639 279° West 429 494 34,000  Level Boston Center
01:57PM 42.5692 -74.6139 277° West 416 479 34,000  Level Boston Center
01:58PM 42.5872 -74.7667 279° West 416 479 34,000  Level Boston Center
01:59PM 42.6025 -74.9253 278° West 416 479 34,000  Level Boston Center
02:00PM 42.6178 -75.0783 278° West 416 479 34,000  Level Boston Center
02:01PM 42.6350 -75.2314 279° West 416 479 34,000  Level Boston Center
02:02PM 42.6497 -75.3931 277° West 421 484 34,000  Level Boston Center
02:03PM 42.6664 -75.5492 278° West 427 491 34,000  Level Boston Center
02:04PM 42.6842 -75.7281 278° West 432 497 34,000  Level Boston Center
02:05PM 42.7003 -75.8900 278° West 432 497 34,000  Level Boston Center
02:06PM 42.7161 -76.0547 278° West 432 497 34,000 -480 Level Boston Center
02:08PM 42.7403 -76.3253 277° West 426 490 32,700 -780 Descending Cleveland Center
02:09PM 42.7542 -76.4800 277° West 421 484 32,000 -360 Descending Cleveland Center
02:10PM 42.7678 -76.6317 277° West 421 484 32,000  Level Cleveland Center
02:11PM 42.7972 -76.7658 287° West 421 484 32,000  Level Cleveland Center
02:12PM 42.8519 -76.9097 297° West 418 481 32,000  Level Cleveland Center
02:13PM 42.8828 -77.0950 283° West 439 505 32,000  Level Cleveland Center
02:14PM 42.9147 -77.2547 285° West 444 511 32,000 -240 Level Cleveland Center
02:15PM 42.9483 -77.4175 286° West 449 517 31,600 -720 Descending Cleveland Center
02:16PM 42.9778 -77.5781 284° West 449 517 30,600 -1,020 Descending Cleveland Center
02:17PM 43.0047 -77.7442 283° West 449 517 29,600 -1,020 Descending Cleveland Center
02:18PM 43.0172 -77.9139 276° West 449 517 28,600 -1,020 Descending Cleveland Center
02:19PM 43.0106 -78.0847 267° West 449 517 27,600 -1,140 Descending Cleveland Center
02:20PM 42.9869 -78.2475 259° West 443 510 26,400 -1,380 Descending Cleveland Center
02:21PM 42.9631 -78.4128 259° West 450 518 24,900 -1,560 Descending Cleveland Center
02:22PM 42.9703 -78.5828 273° West 442 509 23,300 -1,560 Descending Cleveland Center
02:23PM 43.0247 -78.7317 297° West 429 494 21,800 -1,500 Descending Cleveland Center
02:24PM 43.0831 -78.8636 301° West 422 486 20,300 -1,740 Descending Cleveland Center
02:25PM 43.1333 -78.9500 309° West 360 414 18,400 -2,100 Descending Toronto Center
02:26PM 43.1833 -79.0667 300° West 360 414 16,100 -2,280 Descending Toronto Center
02:27PM 43.2333 -79.2000 297° West 390 449 13,900 -2,040 Descending Toronto Center
02:28PM 43.3000 -79.3167 308° West 380 437 12,100 -1,020 Descending Toronto Center
02:29PM 43.3833 -79.3833 330° Northwest 360 414 11,900 -840 Descending Toronto Center
02:30PM 43.4667 -79.4000 352° North 310 357 10,500 -1,500 Descending Toronto Center
02:31PM 43.5333 -79.4500 331° Northwest 300 345 8,900 -1,620 Descending Toronto Center
02:32PM 43.5667 -79.5667 292° West 290 334 7,300 -1,440 Descending Toronto Center
02:33PM 43.5167 -79.6333 224° Southwest 250 288 6,100 -1,380 Descending Toronto Center
02:34PM 43.5000 -79.7000 251° West 220 253 4,600 -1,320 Descending Toronto Center
02:35PM 43.5333 -79.7667 305° West 200 230 3,500 -840 Descending Toronto Center
02:36PM 43.5667 -79.7667 360° North 170 196 3,000 -720 Descending Toronto Center
02:37PM 43.6000 -79.7333 36° Northeast 160 184 2,100 -840 Descending Toronto Center
02:38PM 43.6333 -79.7000 36° Northeast 140 161 1,400 -720 Descending Toronto Center
02:39PM 43.6500 -79.6500 65° Northeast 130 150 700 -480 Descending Toronto Center
02:40PM 43.6667 -79.6333 36° Northeast 80 92 500 -240 Descending Toronto Center